createdAt,value
2022-09-18T00:02:27.580Z,98578.47
2022-09-18T00:04:57.782Z,98572.50
2022-09-18T00:07:28.133Z,98572.65
2022-09-18T00:09:58.724Z,98572.65
2022-09-18T00:12:30.869Z,98554.92
2022-09-18T00:17:59.586Z,98551.25
2022-09-18T00:20:29.952Z,98540.73
2022-09-18T00:23:00.245Z,98539.19
2022-09-18T00:25:31.468Z,98571.55
2022-09-18T00:28:02.098Z,98542.80
2022-09-18T00:30:33.955Z,98534.94
2022-09-18T00:33:04.370Z,98527.05
2022-09-18T00:35:34.558Z,98537.30
2022-09-18T00:38:05.189Z,98532.19
2022-09-18T00:40:35.776Z,98530.86
2022-09-18T00:43:22.164Z,98526.38
2022-09-18T00:46:28.771Z,98526.38
2022-09-18T00:49:10.974Z,98528.16
2022-09-18T00:51:43.382Z,98525.80
2022-09-18T00:54:25.573Z,98512.95
2022-09-18T00:56:59.086Z,98512.95
2022-09-18T00:59:32.096Z,98510.83
2022-09-18T01:02:04.236Z,98520.24
2022-09-18T01:04:34.963Z,98509.17
2022-09-18T01:07:19.899Z,98508.47
2022-09-18T01:09:57.234Z,98508.47
2022-09-18T01:12:42.068Z,98500.41
2022-09-18T01:15:24.334Z,98500.41
2022-09-18T01:18:00.207Z,98497.02
2022-09-18T01:20:33.371Z,98497.02
2022-09-18T01:23:15.647Z,98493.27
2022-09-18T01:26:03.453Z,98493.27
2022-09-18T01:28:45.883Z,98494.13
2022-09-18T01:31:19.198Z,98489.91
2022-09-18T01:33:55.448Z,98494.67
2022-09-18T01:36:28.723Z,98464.84
2022-09-18T01:39:02.168Z,98481.28
2022-09-18T01:41:35.096Z,98481.28
2022-09-18T01:44:09.238Z,98481.92
2022-09-18T01:46:42.700Z,98477.45
2022-09-18T01:49:16.061Z,98428.47
2022-09-18T01:51:50.664Z,98428.47
2022-09-18T01:54:24.803Z,98399.69
2022-09-18T01:57:06.729Z,98399.69
2022-09-18T01:59:51.719Z,98431.08
2022-09-18T02:02:37.357Z,98460.32
2022-09-18T02:05:10.641Z,98460.32
2022-09-18T02:08:00.515Z,98418.38
2022-09-18T02:10:33.746Z,98391.98
2022-09-18T02:13:06.871Z,98352.06
2022-09-18T02:15:40.359Z,98310.82
2022-09-18T02:18:14.158Z,98310.82
2022-09-18T02:20:46.944Z,98370.09
2022-09-18T02:23:18.167Z,98395.15
2022-09-18T02:25:54.102Z,98402.14
2022-09-18T02:28:27.600Z,98387.94
2022-09-18T02:30:58.395Z,98387.94
2022-09-18T02:33:34.499Z,98393.80
2022-09-18T02:36:29.527Z,98383.52
2022-09-18T02:39:31.629Z,98373.67
2022-09-18T02:42:25.593Z,98373.67
2022-09-18T02:45:15.318Z,98389.33
2022-09-18T02:47:51.251Z,98413.19
2022-09-18T02:50:27.302Z,98413.19
2022-09-18T02:53:16.909Z,98391.59
2022-09-18T02:55:52.477Z,98391.59
2022-09-18T02:58:28.481Z,98378.42
2022-09-18T03:01:01.570Z,98378.42
2022-09-18T03:03:33.513Z,98384.03
2022-09-18T03:06:03.947Z,98390.92
2022-09-18T03:08:35.102Z,98390.92
2022-09-18T03:11:05.842Z,98384.86
2022-09-18T03:13:37.892Z,98383.95
2022-09-18T03:16:08.351Z,98374.18
2022-09-18T03:18:39.233Z,98361.02
2022-09-18T03:21:09.574Z,98352.31
2022-09-18T03:23:43.548Z,98352.31
2022-09-18T03:26:11.925Z,98352.27
2022-09-18T03:28:42.346Z,98375.17
2022-09-18T03:31:16.707Z,98368.17
2022-09-18T03:33:48.230Z,98368.17
2022-09-18T03:36:18.522Z,98372.26
2022-09-18T03:38:48.699Z,98366.04
2022-09-18T03:41:18.963Z,98366.04
2022-09-18T03:43:49.490Z,98372.45
2022-09-18T03:46:19.954Z,98365.22
2022-09-18T03:48:51.830Z,98366.20
2022-09-18T03:51:22.961Z,98366.20
2022-09-18T03:53:53.327Z,98362.59
2022-09-18T03:56:23.647Z,98360.86
2022-09-18T03:58:54.188Z,98346.03
2022-09-18T04:01:24.643Z,98362.58
2022-09-18T04:03:55.328Z,98362.58
2022-09-18T04:06:25.792Z,98345.84
2022-09-18T04:08:56.342Z,98347.20
2022-09-18T04:11:47.374Z,98340.91
2022-09-18T04:14:17.754Z,98332.02
2022-09-18T04:16:50.162Z,98337.49
2022-09-18T04:19:20.779Z,98336.58
2022-09-18T04:21:51.446Z,98336.58
2022-09-18T04:24:22.242Z,98319.98
2022-09-18T04:26:52.715Z,98315.58
2022-09-18T04:29:23.102Z,98323.77
2022-09-18T04:31:53.660Z,98323.77
2022-09-18T04:34:23.899Z,98335.49
2022-09-18T04:36:54.411Z,98348.16
2022-09-18T04:39:24.753Z,98347.68
2022-09-18T04:41:55.431Z,98347.68
2022-09-18T04:44:25.947Z,98343.46
2022-09-18T04:46:56.467Z,98335.97
2022-09-18T04:49:26.940Z,98335.97
2022-09-18T04:51:57.160Z,98318.87
2022-09-18T04:54:28.127Z,98318.87
2022-09-18T04:56:58.593Z,98307.39
2022-09-18T04:59:29.833Z,98311.61
2022-09-18T05:02:00.319Z,98317.45
2022-09-18T05:04:30.677Z,98310.17
2022-09-18T05:07:05.566Z,98307.03
2022-09-18T05:09:36.359Z,98288.36
2022-09-18T05:12:07.046Z,98298.47
2022-09-18T05:14:37.448Z,98303.33
2022-09-18T05:17:08.044Z,98303.33
2022-09-18T05:19:42.247Z,98324.08
2022-09-18T05:22:13.230Z,98321.19
2022-09-18T05:24:43.535Z,98313.70
2022-09-18T05:27:13.768Z,98333.00
2022-09-18T05:29:44.274Z,98341.97
2022-09-18T05:32:14.391Z,98334.84
2022-09-18T05:34:44.683Z,98343.99
2022-09-18T05:37:18.980Z,98346.63
2022-09-18T05:39:49.358Z,98343.17
2022-09-18T05:42:20.065Z,98342.75
2022-09-18T05:45:01.898Z,98346.98
2022-09-18T05:47:31.804Z,98355.56
2022-09-18T05:50:02.228Z,98356.56
2022-09-18T05:52:33.027Z,98361.19
2022-09-18T05:55:03.318Z,98369.77
2022-09-18T05:57:34.118Z,98369.91
2022-09-18T06:00:04.947Z,98369.91
2022-09-18T06:02:35.496Z,98368.45
2022-09-18T06:05:06.504Z,98374.95
2022-09-18T06:07:37.825Z,98374.95
2022-09-18T06:10:08.683Z,98373.56
2022-09-18T06:12:40.707Z,98384.08
2022-09-18T06:15:11.972Z,98395.19
2022-09-18T06:17:43.173Z,98395.19
2022-09-18T06:20:13.487Z,98375.46
2022-09-18T06:22:44.054Z,98386.45
2022-09-18T06:25:14.527Z,98379.36
2022-09-18T06:27:44.971Z,98378.13
2022-09-18T06:30:19.306Z,98381.30
2022-09-18T06:33:09.414Z,98381.30
2022-09-18T06:35:41.123Z,98385.06
2022-09-18T06:38:11.753Z,98395.75
2022-09-18T06:40:50.867Z,98402.33
2022-09-18T06:43:22.028Z,98401.37
2022-09-18T06:45:55.525Z,98424.47
2022-09-18T06:48:27.429Z,98401.88
2022-09-18T06:50:59.666Z,98405.77
2022-09-18T06:53:35.440Z,98405.77
2022-09-18T06:56:07.337Z,98408.61
2022-09-18T06:58:38.092Z,98410.28
2022-09-18T07:01:11.085Z,98410.28
2022-09-18T07:03:46.187Z,98410.97
2022-09-18T07:06:16.802Z,98402.17
2022-09-18T07:08:47.171Z,98415.57
2022-09-18T07:11:19.717Z,98404.44
2022-09-18T07:13:50.122Z,98404.44
2022-09-18T07:16:30.795Z,98405.77
2022-09-18T07:19:01.872Z,98403.02
2022-09-18T07:21:32.236Z,98403.02
2022-09-18T07:24:05.799Z,98405.67
2022-09-18T07:26:37.341Z,98414.11
2022-09-18T07:29:10.083Z,98415.69
2022-09-18T07:31:40.601Z,98420.94
2022-09-18T07:34:12.399Z,98420.94
2022-09-18T07:36:42.951Z,98428.61
2022-09-18T07:39:15.693Z,98424.89
2022-09-18T07:41:57.131Z,98424.89
2022-09-18T07:44:29.123Z,98413.25
2022-09-18T07:47:17.153Z,98418.30
2022-09-18T07:53:30.962Z,98418.83
2022-09-18T08:36:22.364Z,98402.75
2022-09-18T08:42:26.361Z,98381.66
2022-09-18T08:45:02.407Z,98381.66
2022-09-18T08:47:53.221Z,98383.33
2022-09-18T08:50:29.753Z,98375.07
2022-09-18T08:53:15.569Z,98381.54
2022-09-18T08:55:46.423Z,98369.51
2022-09-18T08:58:37.468Z,98369.51
2022-09-18T09:01:13.958Z,98371.98
2022-09-18T09:04:02.307Z,98371.98
2022-09-18T09:07:03.674Z,98372.61
2022-09-18T09:10:04.112Z,98370.54
2022-09-18T09:12:59.510Z,98367.12
2022-09-18T09:15:35.762Z,98367.12
2022-09-18T09:18:23.602Z,98360.84
2022-09-18T09:21:01.177Z,98376.71
2022-09-18T09:23:43.348Z,98366.00
2022-09-18T09:26:23.841Z,98366.42
2022-09-18T09:29:03.168Z,98377.92
2022-09-18T09:31:39.422Z,98377.92
2022-09-18T09:34:21.057Z,98372.06
2022-09-18T09:36:54.842Z,98370.95
2022-09-18T09:39:30.540Z,98365.05
2022-09-18T09:42:25.096Z,98372.83
2022-09-18T09:45:04.334Z,98374.06
2022-09-18T09:47:57.517Z,98351.22
2022-09-18T09:50:39.311Z,98360.89
2022-09-18T09:53:16.607Z,98360.89
2022-09-18T09:56:06.244Z,98346.53
2022-09-18T09:58:48.671Z,98348.28
2022-09-18T10:01:31.845Z,98345.38
2022-09-18T10:04:14.436Z,98345.25
2022-09-18T10:06:53.405Z,98345.25
2022-09-18T10:09:49.240Z,98352.06
2022-09-18T10:12:28.647Z,98352.81
2022-09-18T10:15:09.013Z,98346.20
2022-09-18T10:17:44.313Z,98346.20
2022-09-18T10:20:22.001Z,98340.92
2022-09-18T10:22:57.560Z,98358.53
2022-09-18T10:25:30.987Z,98358.53
2022-09-18T10:28:03.020Z,98339.05
2022-09-18T10:30:33.345Z,98350.22
2022-09-18T10:33:03.623Z,98345.09
2022-09-18T10:35:45.444Z,98350.51
2022-09-18T10:38:27.566Z,98350.51
2022-09-18T10:41:12.940Z,98349.19
2022-09-18T10:43:55.652Z,98330.36
2022-09-18T10:46:32.531Z,98347.55
2022-09-18T10:49:08.709Z,98348.80
2022-09-18T10:51:39.108Z,98348.80
2022-09-18T10:54:24.171Z,98353.41
2022-09-18T10:57:23.502Z,98353.41
2022-09-18T10:59:54.013Z,98350.30
2022-09-18T11:02:28.598Z,98338.10
2022-09-18T11:04:59.365Z,98338.10
2022-09-18T11:07:30.337Z,98342.39
2022-09-18T11:10:03.527Z,98344.11
2022-09-18T11:12:42.820Z,98341.44
2022-09-18T11:15:13.620Z,98341.30
2022-09-18T11:20:47.566Z,98328.27
2022-09-18T11:23:31.178Z,98328.27
2022-09-18T11:26:13.819Z,98324.11
2022-09-18T11:28:45.520Z,98329.20
2022-09-18T11:31:21.632Z,98320.27
2022-09-18T11:33:57.837Z,98320.27
2022-09-18T11:36:33.246Z,98313.45
2022-09-18T11:39:13.906Z,98320.23
2022-09-18T11:41:46.542Z,98314.39
2022-09-18T11:44:31.175Z,98314.23
2022-09-18T11:47:28.216Z,98319.83
2022-09-18T11:50:10.086Z,98316.83
2022-09-18T11:52:43.719Z,98310.26
2022-09-18T11:55:26.196Z,98310.26
2022-09-18T11:58:14.693Z,98303.98
2022-09-18T12:00:48.029Z,98304.94
2022-09-18T12:03:30.679Z,98294.83
2022-09-18T12:06:23.647Z,98296.25
2022-09-18T12:09:13.368Z,98302.62
2022-09-18T12:12:10.930Z,98302.62
2022-09-18T12:14:47.479Z,98298.26
2022-09-18T12:17:24.423Z,98306.56
2022-09-18T12:19:59.167Z,98305.92
2022-09-18T12:22:39.799Z,98304.99
2022-09-18T12:25:19.404Z,98305.44
2022-09-18T12:28:06.069Z,98304.23
2022-09-18T12:30:47.227Z,98314.03
2022-09-18T12:33:40.229Z,98296.36
2022-09-18T12:39:51.242Z,98304.23
2022-09-18T12:42:27.393Z,98304.23
2022-09-18T12:45:03.383Z,98306.97
2022-09-18T12:47:55.307Z,98317.20
2022-09-18T12:50:37.215Z,98312.33
2022-09-18T12:53:32.217Z,98312.33
2022-09-18T12:56:14.533Z,98306.93
2022-09-18T12:58:50.774Z,98304.44
2022-09-18T13:01:24.282Z,98313.36
2022-09-18T13:03:58.097Z,98312.98
2022-09-18T13:06:37.791Z,98313.16
2022-09-18T13:09:17.742Z,98310.94
2022-09-18T13:11:53.095Z,98310.95
2022-09-18T13:14:43.971Z,98325.64
2022-09-18T13:17:24.207Z,98316.20
2022-09-18T13:20:22.113Z,98333.52
2022-09-18T13:22:54.075Z,98333.52
2022-09-18T13:25:39.616Z,98319.89
2022-09-18T13:28:28.544Z,98319.89
2022-09-18T13:31:28.175Z,98325.80
2022-09-18T13:34:07.168Z,98325.80
2022-09-18T13:36:46.502Z,98329.05
2022-09-18T13:39:24.780Z,98324.02
2022-09-18T13:42:09.727Z,98324.02
2022-09-18T13:44:51.254Z,98333.20
2022-09-18T13:47:32.875Z,98319.01
2022-09-18T13:50:03.882Z,98332.67
2022-09-18T13:52:37.965Z,98332.67
2022-09-18T13:55:18.509Z,98308.80
2022-09-18T13:57:49.375Z,98348.00
2022-09-18T14:00:24.171Z,98330.13
2022-09-18T14:03:13.065Z,98321.62
2022-09-18T14:05:50.303Z,98336.55
2022-09-18T14:08:24.367Z,98336.55
2022-09-18T14:11:15.974Z,98341.23
2022-09-18T14:13:47.922Z,98334.23
2022-09-18T14:16:24.587Z,98326.60
2022-09-18T14:19:00.708Z,98326.60
2022-09-18T14:21:43.019Z,98329.44
2022-09-18T14:24:42.658Z,98331.94
2022-09-18T14:27:36.850Z,98330.38
2022-09-18T14:30:40.182Z,98348.01
2022-09-18T14:33:19.277Z,98348.01
2022-09-18T14:36:01.205Z,98340.80
2022-09-18T14:38:37.326Z,98340.80
2022-09-18T14:41:13.374Z,98360.39
2022-09-18T14:43:49.408Z,98360.39
2022-09-18T14:46:25.145Z,98360.03
2022-09-18T14:48:57.651Z,98372.29
2022-09-18T14:51:44.868Z,98374.92
2022-09-18T14:54:05.574Z,98374.92
2022-09-18T14:56:37.976Z,98386.34
2022-09-18T14:59:13.984Z,98389.24
2022-09-18T15:01:52.981Z,98389.24
2022-09-18T15:04:33.938Z,98411.25
2022-09-18T15:07:05.439Z,98412.94
2022-09-18T15:09:36.397Z,98412.94
2022-09-18T15:12:15.439Z,98410.45
2022-09-18T15:14:48.703Z,98417.80
2022-09-18T15:17:38.508Z,98417.80
2022-09-18T15:20:11.897Z,98423.22
2022-09-18T15:22:55.931Z,98422.16
2022-09-18T15:25:23.862Z,98423.66
2022-09-18T15:27:58.756Z,98424.73
2022-09-18T15:30:29.707Z,98424.73
2022-09-18T15:33:03.272Z,98433.81
2022-09-18T15:35:36.400Z,98432.05
2022-09-18T15:38:18.489Z,98432.05
2022-09-18T15:40:49.806Z,98444.36
2022-09-18T15:43:35.138Z,98444.36
2022-09-18T15:46:11.468Z,98445.74
2022-09-18T15:48:47.532Z,98443.97
2022-09-18T15:51:26.153Z,98443.97
2022-09-18T15:54:08.416Z,98468.98
2022-09-18T15:56:53.067Z,98477.05
2022-09-18T15:59:33.740Z,98477.05
2022-09-18T16:05:16.394Z,98494.11
2022-09-18T16:08:01.382Z,98543.61
2022-09-18T16:10:38.165Z,98532.37
2022-09-18T16:13:35.338Z,98554.16
2022-09-18T16:16:14.705Z,98554.16
2022-09-18T16:21:47.581Z,98572.98
2022-09-18T16:24:23.732Z,98585.68
2022-09-18T16:26:59.026Z,98594.48
2022-09-18T16:29:31.464Z,98619.16
2022-09-18T16:32:02.387Z,98619.16
2022-09-18T16:34:34.762Z,98596.89
2022-09-18T16:37:06.258Z,98623.30
2022-09-18T16:39:37.318Z,98616.09
2022-09-18T16:42:32.798Z,98616.09
2022-09-18T16:45:07.833Z,98642.31
2022-09-18T16:47:42.886Z,98642.31
2022-09-18T16:50:16.635Z,98645.76
2022-09-18T16:52:53.550Z,98662.20
2022-09-18T16:55:45.178Z,98666.18
2022-09-18T16:58:21.453Z,98666.18
2022-09-18T17:00:54.905Z,98680.39
2022-09-18T17:03:29.485Z,98680.39
2022-09-18T17:06:01.484Z,98701.20
2022-09-18T17:08:34.752Z,98701.20
2022-09-18T17:11:07.225Z,98707.98
2022-09-18T17:13:46.398Z,98714.56
2022-09-18T17:16:41.242Z,98715.55
2022-09-18T17:18:53.895Z,98727.72
2022-09-18T17:21:27.755Z,98727.72
2022-09-18T17:24:25.006Z,98733.48
2022-09-18T17:26:56.212Z,98753.09
2022-09-18T17:29:27.502Z,98744.40
2022-09-18T17:31:58.106Z,98758.02
2022-09-18T17:34:30.386Z,98775.25
2022-09-18T17:37:06.570Z,98780.43
2022-09-18T17:40:14.262Z,98780.43
2022-09-18T17:42:43.042Z,98779.69
2022-09-18T17:45:16.656Z,98779.69
2022-09-18T17:47:58.385Z,98799.06
2022-09-18T17:50:36.006Z,98798.23
2022-09-18T17:56:28.637Z,98825.14
2022-09-18T17:59:01.849Z,98831.07
2022-09-18T18:01:44.418Z,98842.02
2022-09-18T18:04:17.721Z,98855.77
2022-09-18T18:06:51.800Z,98855.77
2022-09-18T18:09:24.428Z,98854.33
2022-09-18T18:11:58.612Z,98868.83
2022-09-18T18:14:39.222Z,98847.80
2022-09-18T18:17:11.694Z,98847.80
2022-09-18T18:19:42.055Z,98858.50
2022-09-18T18:22:15.201Z,98865.34
2022-09-18T18:24:49.379Z,98873.37
2022-09-18T18:27:24.957Z,98873.37
2022-09-18T18:29:56.860Z,98874.72
2022-09-18T18:32:27.708Z,98868.83
2022-09-18T18:35:01.727Z,98868.83
2022-09-18T18:37:34.705Z,98892.32
2022-09-18T18:40:05.957Z,98892.32
2022-09-18T18:42:37.271Z,98903.70
2022-09-18T18:45:45.634Z,98899.04
2022-09-18T18:48:16.343Z,98893.61
2022-09-18T18:50:46.808Z,98902.03
2022-09-18T18:53:22.091Z,98902.03
2022-09-18T18:55:57.918Z,98920.81
2022-09-18T18:58:34.433Z,98918.45
2022-09-18T19:04:05.688Z,98924.00
2022-09-18T19:06:39.149Z,98930.98
2022-09-18T19:09:23.434Z,98930.98
2022-09-18T19:12:18.316Z,98923.55
2022-09-18T19:14:52.390Z,98931.59
2022-09-18T19:17:25.018Z,98942.80
2022-09-18T19:20:04.581Z,98942.07
2022-09-18T19:26:20.564Z,98946.34
2022-09-18T19:29:23.976Z,98942.67
2022-09-18T19:32:02.801Z,98944.46
2022-09-18T19:34:33.366Z,98944.46
2022-09-18T19:37:11.691Z,98941.80
2022-09-18T19:39:40.180Z,98939.69
2022-09-18T19:42:31.252Z,98956.55
2022-09-18T19:45:05.090Z,98956.55
2022-09-18T19:47:46.722Z,98945.76
2022-09-18T19:50:30.573Z,98960.29
2022-09-18T19:53:04.782Z,98960.34
2022-09-18T19:55:35.806Z,98960.34
2022-09-18T20:01:26.098Z,98978.88
2022-09-18T20:03:57.531Z,98978.88
2022-09-18T20:06:33.767Z,98984.80
2022-09-18T20:09:05.069Z,98978.46
2022-09-18T20:11:47.612Z,98978.46
2022-09-18T20:14:20.034Z,98977.14
2022-09-18T20:16:50.730Z,98977.14
2022-09-18T20:22:21.442Z,98986.47
2022-09-18T20:24:55.296Z,98990.49
2022-09-18T20:27:27.530Z,99001.63
2022-09-18T20:30:02.015Z,99004.03
2022-09-18T20:32:35.943Z,99006.59
2022-09-18T20:35:07.596Z,99012.59
2022-09-18T20:37:38.850Z,99022.47
2022-09-18T20:40:11.481Z,99024.33
2022-09-18T20:42:42.782Z,99024.33
2022-09-18T20:45:16.318Z,99021.81
2022-09-18T20:47:50.124Z,99025.47
2022-09-18T20:50:21.213Z,99041.16
2022-09-18T20:52:53.385Z,99041.16
2022-09-18T20:55:24.015Z,99034.14
2022-09-18T20:57:58.211Z,99033.33
2022-09-18T21:00:27.824Z,99042.63
2022-09-18T21:03:01.034Z,99039.85
2022-09-18T21:05:31.629Z,99039.85
2022-09-18T21:08:02.878Z,99057.52
2022-09-18T21:10:33.597Z,99057.52
2022-09-18T21:13:04.521Z,99043.71
2022-09-18T21:15:37.022Z,99043.71
2022-09-18T21:18:07.386Z,99055.20
2022-09-18T21:20:38.361Z,99072.34
2022-09-18T21:23:12.520Z,99072.34
2022-09-18T21:25:42.960Z,99067.77
2022-09-18T21:28:13.722Z,99067.77
2022-09-18T21:30:44.086Z,99073.14
2022-09-18T21:33:14.856Z,99086.41
2022-09-18T21:35:52.851Z,99086.41
2022-09-18T21:38:23.104Z,99082.75
2022-09-18T21:40:53.396Z,99082.75
2022-09-18T21:43:23.616Z,99091.08
2022-09-18T21:45:54.230Z,99087.53
2022-09-18T21:48:24.726Z,99086.14
2022-09-18T21:50:55.370Z,99096.45
2022-09-18T21:53:25.633Z,99094.11
2022-09-18T21:56:04.598Z,99094.11
2022-09-18T21:58:39.973Z,99104.45
2022-09-18T22:01:19.502Z,99097.63
2022-09-18T22:03:54.628Z,99103.31
2022-09-18T22:06:27.629Z,99103.31
2022-09-18T22:08:59.612Z,99109.81
2022-09-18T22:11:35.899Z,99115.14
2022-09-18T22:14:09.376Z,99115.14
2022-09-18T22:16:40.749Z,99121.64
2022-09-18T22:19:11.976Z,99126.80
2022-09-18T22:21:44.887Z,99126.80
2022-09-18T22:24:17.837Z,99130.69
2022-09-18T22:26:59.348Z,99130.70
2022-09-18T22:29:32.675Z,99134.55
2022-09-18T22:32:03.884Z,99131.38
2022-09-18T22:34:35.050Z,99136.86
2022-09-18T22:37:05.344Z,99142.05
2022-09-18T22:39:35.610Z,99136.53
2022-09-18T22:42:05.863Z,99135.68
2022-09-18T22:44:36.235Z,99136.41
2022-09-18T22:47:06.837Z,99146.27
2022-09-18T22:49:37.748Z,99147.11
2022-09-18T22:52:08.039Z,99148.03
2022-09-18T22:54:38.640Z,99148.03
2022-09-18T22:57:08.927Z,99154.03
2022-09-18T22:59:39.047Z,99155.41
2022-09-18T23:02:09.311Z,99154.47
2022-09-18T23:04:40.289Z,99156.09
2022-09-18T23:07:10.860Z,99156.08
2022-09-18T23:09:41.879Z,99158.95
2022-09-18T23:12:12.269Z,99156.23
2022-09-18T23:14:43.048Z,99162.95
2022-09-18T23:17:14.220Z,99164.48
2022-09-18T23:19:44.462Z,99164.48
2022-09-18T23:22:14.765Z,99159.02
2022-09-18T23:24:45.309Z,99154.30
2022-09-18T23:27:15.694Z,99162.27
2022-09-18T23:29:46.064Z,99165.20
2022-09-18T23:32:16.430Z,99165.20
2022-09-18T23:34:46.724Z,99161.02
2022-09-18T23:37:17.062Z,99170.37
2022-09-18T23:39:47.376Z,99170.37
2022-09-18T23:42:17.583Z,99170.02
2022-09-18T23:44:47.815Z,99165.09
2022-09-18T23:47:18.112Z,99165.09
2022-09-18T23:49:48.420Z,99158.01
2022-09-18T23:52:18.729Z,99179.30
2022-09-18T23:54:48.962Z,99189.25
2022-09-18T23:57:19.478Z,99192.50
2022-09-18T23:59:52.526Z,99194.69
